Time;durP1;ratioP1;P1;durP2;ratioP2;P2;SDS_P1;SDS_P2;PMS_P1;PMS_P2;Temp;Humidity;BMP_temperature;BMP_pressure;BME280_temperature;BME280_humidity;BME280_pressure;Samples;Min_cycle;Max_cycle;Signal;HPM_P1;HPM_P2
2023/12/20 05:30:14;;;;;;;0.10;0.10;;;7.50;84.30;;;;;;5978103;23;20018;-79
2023/12/20 05:32:39;;;;;;;0.10;0.10;;;7.40;84.40;;;;;;4903005;29;20040;-80
2023/12/20 05:35:05;;;;;;;0.10;0.10;;;7.30;84.50;;;;;;4916566;29;20044;-80
2023/12/20 05:37:30;;;;;;;0.10;0.10;;;7.30;84.70;;;;;;4904452;29;20499;-80
2023/12/20 05:39:56;;;;;;;0.10;0.10;;;7.30;84.70;;;;;;4884947;29;20021;-80
2023/12/20 05:42:22;;;;;;;0.10;0.10;;;7.30;84.50;;;;;;4885441;29;20037;-80
2023/12/20 05:44:47;;;;;;;0.10;0.10;;;7.20;84.70;;;;;;4882846;29;20070;-80
2023/12/20 05:47:13;;;;;;;0.10;0.10;;;7.20;84.80;;;;;;4896996;29;20033;-80
2023/12/20 05:49:38;;;;;;;0.10;0.10;;;7.20;84.80;;;;;;4909981;29;20020;-78
2023/12/20 05:52:04;;;;;;;0.10;0.10;;;7.20;84.70;;;;;;4906554;29;20081;-81
2023/12/20 05:54:30;;;;;;;0.10;0.10;;;7.20;84.80;;;;;;4890498;29;20025;-79
2023/12/20 05:56:56;;;;;;;0.10;0.10;;;7.10;84.80;;;;;;4889613;29;20029;-79
2023/12/20 05:59:21;;;;;;;0.10;0.10;;;7.10;84.90;;;;;;4882511;29;20029;-79
2023/12/20 06:01:47;;;;;;;0.10;0.10;;;7.10;84.90;;;;;;4898599;29;20036;-80
2023/12/20 06:04:13;;;;;;;0.10;0.10;;;7.10;84.80;;;;;;4881211;29;20060;-80
2023/12/20 06:06:43;;;;;;;0.10;0.10;;;7.10;84.80;;;;;;4889004;29;20044;-80
2023/12/20 06:09:08;;;;;;;0.10;0.10;;;7.10;84.90;;;;;;4902304;29;20068;-83
2023/12/20 06:11:34;;;;;;;0.10;0.10;;;7.20;84.90;;;;;;4902291;29;20066;-78
2023/12/20 06:14:00;;;;;;;0.17;0.17;;;7.20;85.00;;;;;;4900838;29;20063;-79
2023/12/20 06:16:25;;;;;;;0.20;0.20;;;7.20;85.00;;;;;;4890988;29;20116;-80
2023/12/20 06:18:51;;;;;;;0.10;0.10;;;7.30;84.90;;;;;;4900839;29;20032;-82
2023/12/20 06:21:16;;;;;;;0.20;0.20;;;7.30;84.80;;;;;;4881540;29;20048;-83
2023/12/20 06:23:42;;;;;;;0.10;0.10;;;7.40;84.90;;;;;;4886027;29;20032;-84
2023/12/20 06:26:08;;;;;;;0.10;0.10;;;7.40;84.80;;;;;;4900009;29;20044;-83
2023/12/20 06:28:33;;;;;;;0.10;0.10;;;7.50;84.90;;;;;;4898876;29;20059;-84
2023/12/20 06:31:00;;;;;;;0.10;0.10;;;7.50;84.90;;;;;;4897667;29;20040;-84
2023/12/20 06:33:26;;;;;;;0.10;0.10;;;7.60;84.80;;;;;;4880224;29;20529;-84
2023/12/20 06:35:51;;;;;;;0.10;0.10;;;7.70;84.90;;;;;;4899265;29;20664;-84
2023/12/20 06:38:18;;;;;;;0.10;0.10;;;7.70;84.90;;;;;;4899203;29;20033;-84
2023/12/20 06:40:44;;;;;;;0.10;0.10;;;7.70;85.00;;;;;;4897255;29;20111;-85
2023/12/20 06:43:10;;;;;;;0.10;0.10;;;7.70;84.80;;;;;;4919970;29;20066;-84
2023/12/20 06:45:36;;;;;;;0.10;0.10;;;7.60;84.80;;;;;;4901924;29;20028;-85
2023/12/20 06:48:01;;;;;;;0.10;0.10;;;7.60;84.90;;;;;;4883731;29;20031;-84
2023/12/20 06:50:27;;;;;;;0.10;0.10;;;7.50;84.80;;;;;;4882588;29;20039;-89
2023/12/20 06:52:53;;;;;;;0.10;0.10;;;7.50;84.90;;;;;;4894425;29;20029;-83
2023/12/20 06:55:18;;;;;;;0.10;0.10;;;7.50;84.90;;;;;;4880094;29;20040;-83
2023/12/20 06:57:44;;;;;;;0.10;0.10;;;7.40;85.00;;;;;;4882421;29;20029;-80
2023/12/20 07:00:12;;;;;;;0.17;0.17;;;7.40;84.80;;;;;;4899026;29;20044;-82
2023/12/20 07:02:37;;;;;;;0.10;0.10;;;7.30;85.20;;;;;;4897910;29;20025;-81
2023/12/20 07:05:04;;;;;;;0.10;0.10;;;7.20;85.20;;;;;;4892061;29;20510;-80
2023/12/20 07:07:29;;;;;;;0.10;0.10;;;7.30;85.40;;;;;;4881084;29;20036;-80
2023/12/20 07:09:55;;;;;;;0.10;0.10;;;7.20;85.40;;;;;;4899754;29;20039;-81
2023/12/20 07:12:21;;;;;;;0.10;0.10;;;7.20;85.50;;;;;;4896886;29;20052;-81
2023/12/20 07:14:47;;;;;;;0.10;0.10;;;7.10;85.60;;;;;;4898586;29;20080;-81
2023/12/20 07:17:14;;;;;;;0.10;0.10;;;7.10;85.60;;;;;;4881691;29;20032;-81
2023/12/20 07:19:40;;;;;;;0.10;0.10;;;7.10;85.70;;;;;;4882035;29;20052;-81
2023/12/20 07:22:06;;;;;;;0.10;0.10;;;7.10;85.80;;;;;;4877856;29;20025;-80
2023/12/20 07:24:32;;;;;;;0.13;0.13;;;7.10;85.80;;;;;;4865136;29;20033;-81
2023/12/20 07:26:59;;;;;;;0.10;0.10;;;7.10;85.70;;;;;;4880800;29;20088;-81
2023/12/20 07:29:25;;;;;;;0.10;0.10;;;7.00;85.60;;;;;;4882286;29;20472;-80
2023/12/20 07:31:51;;;;;;;0.10;0.10;;;7.10;85.90;;;;;;4882556;29;20077;-80
2023/12/20 07:34:17;;;;;;;0.10;0.10;;;7.00;85.90;;;;;;4865690;29;20040;-80
2023/12/20 07:36:43;;;;;;;0.10;0.10;;;7.00;85.60;;;;;;4877941;29;20096;-80
2023/12/20 07:39:08;;;;;;;0.10;0.10;;;7.00;85.80;;;;;;4900239;29;20037;-80
2023/12/20 07:41:34;;;;;;;0.20;0.20;;;7.00;85.90;;;;;;4899717;29;20206;-80
2023/12/20 07:44:00;;;;;;;0.10;0.10;;;7.00;85.90;;;;;;4899828;29;20028;-80
2023/12/20 07:46:25;;;;;;;0.10;0.10;;;7.00;85.90;;;;;;4882539;29;20028;-80
2023/12/20 07:48:51;;;;;;;0.10;0.10;;;7.10;85.90;;;;;;4899970;29;20041;-80
2023/12/20 07:51:17;;;;;;;0.10;0.10;;;7.00;85.90;;;;;;4885619;29;20037;-80
2023/12/20 07:53:42;;;;;;;0.10;0.10;;;7.10;86.00;;;;;;4881645;29;20041;-80
2023/12/20 07:56:16;;;;;;;0.10;0.10;;;7.20;86.00;;;;;;4892697;29;20396;-80
2023/12/20 07:58:41;;;;;;;;;;;7.10;86.00;;;;;;4900613;29;20036;-81
2023/12/20 08:01:07;;;;;;;0.10;0.10;;;7.20;86.00;;;;;;4883606;29;19908;-80
2023/12/20 08:03:32;;;;;;;0.10;0.10;;;7.20;86.00;;;;;;4883837;29;20037;-81
2023/12/20 08:05:59;;;;;;;0.10;0.10;;;7.20;85.80;;;;;;4903851;29;20033;-80
2023/12/20 08:08:25;;;;;;;0.10;0.10;;;7.20;85.80;;;;;;4887042;29;20080;-81
2023/12/20 08:10:50;;;;;;;0.10;0.10;;;7.30;85.80;;;;;;4892873;29;20090;-80
2023/12/20 08:13:16;;;;;;;0.10;0.10;;;7.40;85.70;;;;;;4896006;29;20037;-81
2023/12/20 08:15:42;;;;;;;0.10;0.10;;;7.30;85.60;;;;;;4885664;29;20043;-81
2023/12/20 08:18:07;;;;;;;0.10;0.10;;;7.30;85.80;;;;;;4887647;29;20118;-80
2023/12/20 08:20:33;;;;;;;0.10;0.10;;;7.20;85.80;;;;;;4886940;29;20064;-81
2023/12/20 08:22:59;;;;;;;0.10;0.10;;;7.30;85.90;;;;;;4899157;29;20028;-81
2023/12/20 08:25:24;;;;;;;0.10;0.10;;;7.30;85.80;;;;;;4890842;29;20419;-81
2023/12/20 08:27:50;;;;;;;0.10;0.10;;;7.40;85.70;;;;;;4886376;29;20029;-81
2023/12/20 08:30:20;;;;;;;0.10;0.10;;;7.50;85.60;;;;;;4900385;29;20037;-81
2023/12/20 08:32:46;;;;;;;0.20;0.20;;;7.60;85.60;;;;;;4904493;29;20103;-81
2023/12/20 08:35:11;;;;;;;0.10;0.10;;;7.70;85.50;;;;;;4890873;29;20032;-81
2023/12/20 08:37:37;;;;;;;0.10;0.10;;;7.80;85.50;;;;;;4887150;29;20120;-81
2023/12/20 08:40:03;;;;;;;0.10;0.10;;;7.80;85.50;;;;;;4906801;29;20036;-81
2023/12/20 08:42:31;;;;;;;0.10;0.10;;;7.80;85.40;;;;;;4922008;29;20086;-80
2023/12/20 08:44:58;;;;;;;0.10;0.10;;;7.80;85.50;;;;;;4906745;29;20025;-83
2023/12/20 08:47:24;;;;;;;0.10;0.10;;;7.80;85.50;;;;;;4902508;29;20024;-83
2023/12/20 08:49:50;;;;;;;0.10;0.10;;;7.70;85.60;;;;;;4900886;29;20040;-83
2023/12/20 08:52:15;;;;;;;0.10;0.10;;;7.70;85.60;;;;;;4885254;29;20054;-82
2023/12/20 08:54:41;;;;;;;0.10;0.10;;;7.60;85.60;;;;;;4915463;29;20029;-83
2023/12/20 08:57:07;;;;;;;0.13;0.13;;;7.60;85.80;;;;;;4922045;29;20390;-81
2023/12/20 08:59:33;;;;;;;0.10;0.10;;;7.60;85.80;;;;;;4915010;29;20039;-80
2023/12/20 09:01:58;;;;;;;0.10;0.10;;;7.60;85.90;;;;;;4915218;29;20017;-82
2023/12/20 09:04:24;;;;;;;0.10;0.10;;;7.70;85.80;;;;;;4904761;29;20116;-81
2023/12/20 09:06:50;;;;;;;0.10;0.10;;;7.80;85.80;;;;;;4916689;29;20077;-80
2023/12/20 09:09:16;;;;;;;0.13;0.13;;;7.90;85.80;;;;;;4897889;29;20033;-88
2023/12/20 09:11:42;;;;;;;0.15;0.15;;;7.90;85.70;;;;;;4867658;29;20112;-82
2023/12/20 09:14:08;;;;;;;0.17;0.17;;;8.00;85.60;;;;;;4881871;29;20033;-83
2023/12/20 09:16:33;;;;;;;0.20;0.20;;;8.10;85.50;;;;;;4884839;29;20124;-83
2023/12/20 09:18:59;;;;;;;0.10;0.10;;;8.20;85.50;;;;;;4886078;29;20025;-83
2023/12/20 09:21:25;;;;;;;0.10;0.10;;;8.30;85.40;;;;;;4885638;29;20041;-83
2023/12/20 09:23:51;;;;;;;0.10;0.10;;;8.40;85.30;;;;;;4897873;29;20028;-82
2023/12/20 09:26:16;;;;;;;0.10;0.10;;;8.40;85.20;;;;;;4902756;29;20104;-82
2023/12/20 09:28:43;;;;;;;0.10;0.10;;;8.30;85.00;;;;;;4901826;29;20037;-82
2023/12/20 09:31:09;;;;;;;0.10;0.10;;;8.20;85.10;;;;;;4901728;29;20073;-82
2023/12/20 09:33:35;;;;;;;0.10;0.10;;;8.20;85.20;;;;;;4903400;29;20685;-83
2023/12/20 09:36:00;;;;;;;0.10;0.10;;;8.30;85.10;;;;;;4885828;29;20025;-83
2023/12/20 09:38:26;;;;;;;0.10;0.10;;;8.30;85.20;;;;;;4899142;29;20036;-82
2023/12/20 09:40:52;;;;;;;0.10;0.10;;;8.30;85.10;;;;;;4886289;29;20028;-82
2023/12/20 09:43:20;;;;;;;0.17;0.17;;;8.40;85.20;;;;;;4895597;29;20061;-83
2023/12/20 09:45:49;;;;;;;0.10;0.10;;;8.50;85.10;;;;;;4870685;29;20096;-83
2023/12/20 09:48:18;;;;;;;0.20;0.20;;;8.50;85.10;;;;;;4882045;29;20055;-83
2023/12/20 09:50:44;;;;;;;0.10;0.10;;;8.50;85.00;;;;;;4899386;29;20024;-82
2023/12/20 09:53:11;;;;;;;0.10;0.10;;;8.60;85.00;;;;;;4899022;29;20029;-82
2023/12/20 09:55:38;;;;;;;0.10;0.10;;;8.70;84.90;;;;;;4881159;29;20042;-83
2023/12/20 09:58:03;;;;;;;0.10;0.10;;;8.70;84.90;;;;;;4898666;29;20044;-83
2023/12/20 10:00:29;;;;;;;0.10;0.10;;;8.80;84.90;;;;;;4900122;29;20093;-83
2023/12/20 10:03:00;;;;;;;0.10;0.10;;;8.90;84.60;;;;;;4886573;29;20037;-83
2023/12/20 10:05:30;;;;;;;0.10;0.10;;;9.00;84.60;;;;;;4883442;29;20097;-83
2023/12/20 10:07:56;;;;;;;0.10;0.10;;;9.20;84.50;;;;;;4897468;29;20096;-83
2023/12/20 10:10:23;;;;;;;0.10;0.10;;;9.20;84.50;;;;;;4901071;29;20451;-83
2023/12/20 10:13:02;;;;;;;0.10;0.10;;;9.20;84.20;;;;;;4899198;29;20055;-84
2023/12/20 10:15:28;;;;;;;0.20;0.20;;;9.10;84.20;;;;;;4882772;29;20456;-82
2023/12/20 10:17:54;;;;;;;0.10;0.10;;;9.10;84.20;;;;;;4882646;29;20037;-83
2023/12/20 10:20:20;;;;;;;0.20;0.20;;;9.20;84.30;;;;;;4884721;29;20396;-83
2023/12/20 10:22:47;;;;;;;0.10;0.10;;;9.20;84.40;;;;;;4895808;29;20040;-83
2023/12/20 10:25:13;;;;;;;0.10;0.10;;;9.30;84.20;;;;;;4886177;29;20431;-82
2023/12/20 10:27:38;;;;;;;0.10;0.10;;;9.40;84.30;;;;;;4898358;29;20119;-82
2023/12/20 10:30:04;;;;;;;0.20;0.20;;;9.50;84.20;;;;;;4899685;29;20017;-83
2023/12/20 10:32:31;;;;;;;0.10;0.10;;;9.50;84.10;;;;;;4901036;29;20041;-83
2023/12/20 10:34:57;;;;;;;0.10;0.10;;;9.50;84.20;;;;;;4897412;29;20049;-83
2023/12/20 10:37:22;;;;;;;0.10;0.10;;;9.60;83.90;;;;;;4898667;29;20452;-82
2023/12/20 10:39:57;;;;;;;0.10;0.10;;;9.60;83.90;;;;;;4886308;29;20443;-82
2023/12/20 10:42:26;;;;;;;0.10;0.10;;;9.70;83.90;;;;;;4883048;29;20040;-83
2023/12/20 10:44:53;;;;;;;0.10;0.10;;;9.70;83.80;;;;;;4899770;29;20789;-83
2023/12/20 10:47:20;;;;;;;0.10;0.10;;;9.80;83.80;;;;;;4897137;29;20024;-82
2023/12/20 10:49:46;;;;;;;0.10;0.10;;;9.90;83.60;;;;;;4877832;29;20031;-82
2023/12/20 10:52:13;;;;;;;0.10;0.10;;;9.90;83.50;;;;;;4899248;29;20061;-83
2023/12/20 10:54:41;;;;;;;0.10;0.10;;;10.00;83.40;;;;;;4882696;29;20028;-83
2023/12/20 10:57:07;;;;;;;0.10;0.10;;;10.10;83.40;;;;;;4900278;29;20052;-83
2023/12/20 10:59:36;;;;;;;0.10;0.10;;;10.00;83.40;;;;;;4899768;29;20056;-83
2023/12/20 11:02:07;;;;;;;0.10;0.10;;;9.90;83.60;;;;;;4899725;29;20036;-83
2023/12/20 11:04:59;;;;;;;0.10;0.10;;;9.80;83.70;;;;;;4899183;29;20563;-83
2023/12/20 11:07:42;;;;;;;0.10;0.10;;;9.90;83.80;;;;;;4896033;29;20044;-83
2023/12/20 11:10:31;;;;;;;0.10;0.10;;;10.00;83.70;;;;;;4895597;29;20432;-83
2023/12/20 11:13:12;;;;;;;0.17;0.17;;;10.20;83.60;;;;;;4880970;29;20033;-83
2023/12/20 11:15:38;;;;;;;0.10;0.10;;;10.30;83.60;;;;;;4883229;29;20692;-83
2023/12/20 11:18:05;;;;;;;0.10;0.10;;;10.30;83.30;;;;;;4898039;29;20033;-83
2023/12/20 11:20:39;;;;;;;0.10;0.10;;;10.40;83.30;;;;;;4881893;29;20123;-83
2023/12/20 11:23:06;;;;;;;0.20;0.20;;;10.50;83.20;;;;;;4888299;29;20546;-83
2023/12/20 11:25:52;;;;;;;0.10;0.10;;;10.50;83.10;;;;;;4896732;29;20024;-84
2023/12/20 11:28:24;;;;;;;0.10;0.10;;;10.60;83.00;;;;;;4868213;29;20125;-79
2023/12/20 11:30:55;;;;;;;0.10;0.10;;;10.70;83.00;;;;;;4895634;29;20056;-85
2023/12/20 11:33:29;;;;;;;0.20;0.20;;;10.70;83.00;;;;;;4882268;29;20033;-82
2023/12/20 11:35:59;;;;;;;0.10;0.10;;;10.80;82.80;;;;;;4900454;29;20032;-82
2023/12/20 11:38:25;;;;;;;0.10;0.10;;;10.90;82.60;;;;;;4896828;29;20033;-82
2023/12/20 11:40:56;;;;;;;0.10;0.10;;;10.90;82.20;;;;;;4900739;29;20040;-82
2023/12/20 11:43:53;;;;;;;0.10;0.10;;;10.90;82.20;;;;;;4901145;29;20028;-82
2023/12/20 11:46:18;;;;;;;0.10;0.10;;;11.00;82.30;;;;;;4887939;29;20049;-82
2023/12/20 11:48:45;;;;;;;0.10;0.10;;;11.00;82.10;;;;;;4893064;29;20043;-82
2023/12/20 11:51:14;;;;;;;0.10;0.10;;;11.10;82.20;;;;;;4879596;29;20031;-82
2023/12/20 11:53:40;;;;;;;0.10;0.10;;;11.10;82.20;;;;;;4880815;29;20132;-82
2023/12/20 11:56:07;;;;;;;0.10;0.10;;;11.10;82.00;;;;;;4899861;29;20044;-82
2023/12/20 11:58:36;;;;;;;0.10;0.10;;;11.20;82.20;;;;;;4883383;29;20037;-83
2023/12/20 12:01:02;;;;;;;0.10;0.10;;;11.20;82.10;;;;;;4900260;29;20099;-82
2023/12/20 12:03:28;;;;;;;0.10;0.10;;;11.20;81.90;;;;;;4883580;29;20037;-82
2023/12/20 12:05:53;;;;;;;0.10;0.10;;;11.30;81.80;;;;;;4900789;29;20061;-82
2023/12/20 12:08:19;;;;;;;0.10;0.10;;;11.40;81.90;;;;;;4886315;29;20036;-83
2023/12/20 12:10:45;;;;;;;0.10;0.10;;;11.60;81.60;;;;;;4881381;29;20415;-82
2023/12/20 12:13:11;;;;;;;0.10;0.10;;;11.80;81.40;;;;;;4900099;29;20032;-82
2023/12/20 12:15:37;;;;;;;0.10;0.10;;;11.80;80.40;;;;;;4883645;29;20059;-82
2023/12/20 12:18:05;;;;;;;0.10;0.10;;;11.80;80.10;;;;;;4880126;29;20029;-82
2023/12/20 12:20:30;;;;;;;0.10;0.10;;;11.80;80.50;;;;;;4883296;29;20033;-82
2023/12/20 12:23:01;;;;;;;0.10;0.10;;;11.80;80.70;;;;;;4882142;29;20040;-82
2023/12/20 12:25:28;;;;;;;0.10;0.10;;;11.90;80.70;;;;;;4900090;29;20055;-82
2023/12/20 12:27:54;;;;;;;0.10;0.10;;;11.90;80.50;;;;;;4898960;29;20081;-81
2023/12/20 12:30:19;;;;;;;0.10;0.10;;;12.00;80.40;;;;;;4901055;29;20081;-81
2023/12/20 12:32:46;;;;;;;0.10;0.10;;;12.10;80.00;;;;;;4902088;29;20447;-82
2023/12/20 12:35:12;;;;;;;0.10;0.10;;;12.20;79.90;;;;;;4887972;29;20512;-81
2023/12/20 12:37:41;;;;;;;0.10;0.10;;;12.20;79.90;;;;;;4892551;29;20145;-82
2023/12/20 12:40:09;;;;;;;0.10;0.10;;;12.20;79.60;;;;;;4903933;29;20072;-81
2023/12/20 12:42:36;;;;;;;0.10;0.10;;;12.10;79.60;;;;;;4898857;29;20040;-82
2023/12/20 12:45:01;;;;;;;0.10;0.10;;;12.10;79.80;;;;;;4881567;29;20403;-82
2023/12/20 12:47:27;;;;;;;0.10;0.10;;;12.00;79.90;;;;;;4882565;29;20079;-81
2023/12/20 12:49:53;;;;;;;0.10;0.10;;;12.00;80.10;;;;;;4902991;29;20064;-82
2023/12/20 12:52:19;;;;;;;0.10;0.10;;;11.90;80.60;;;;;;4890547;29;20095;-80
2023/12/20 12:54:46;;;;;;;0.10;0.10;;;11.80;81.40;;;;;;4878170;29;20064;-83
2023/12/20 12:57:13;;;;;;;0.10;0.10;;;11.70;82.10;;;;;;4884340;29;20399;-81
2023/12/20 12:59:41;;;;;;;0.10;0.10;;;11.50;82.60;;;;;;4903273;29;20025;-79
2023/12/20 13:02:06;;;;;;;0.10;0.10;;;11.50;83.00;;;;;;4882531;29;20040;-79
2023/12/20 13:04:32;;;;;;;0.10;0.10;;;11.50;83.40;;;;;;4884364;29;20035;-79
2023/12/20 13:06:58;;;;;;;0.10;0.10;;;11.50;83.60;;;;;;4886144;29;20036;-79
2023/12/20 13:09:23;;;;;;;0.10;0.10;;;11.50;84.00;;;;;;4885986;29;20115;-79
2023/12/20 13:11:49;;;;;;;0.10;0.10;;;11.50;83.80;;;;;;4884911;29;20506;-79
2023/12/20 13:14:16;;;;;;;0.10;0.10;;;11.50;83.80;;;;;;4884778;29;20539;-79
2023/12/20 13:16:42;;;;;;;0.10;0.10;;;11.50;83.70;;;;;;4900897;29;20024;-80
2023/12/20 13:19:08;;;;;;;0.10;0.10;;;11.50;83.70;;;;;;4884416;29;20032;-79
2023/12/20 13:21:33;;;;;;;0.10;0.10;;;11.50;83.70;;;;;;4902180;29;20490;-79
2023/12/20 13:23:59;;;;;;;0.10;0.10;;;11.40;83.80;;;;;;4898361;29;20040;-80
2023/12/20 13:26:25;;;;;;;0.10;0.10;;;11.50;83.70;;;;;;4884130;29;20065;-79
2023/12/20 13:28:50;;;;;;;0.10;0.10;;;11.50;83.70;;;;;;4890387;29;20033;-78
2023/12/20 13:31:16;;;;;;;0.10;0.10;;;11.50;83.70;;;;;;4883222;29;20057;-79
2023/12/20 13:33:41;;;;;;;0.10;0.10;;;11.50;83.60;;;;;;4897567;29;20040;-79
2023/12/20 13:36:07;;;;;;;0.10;0.10;;;11.50;83.80;;;;;;4896253;29;20017;-79
2023/12/20 13:38:34;;;;;;;0.10;0.10;;;11.50;83.70;;;;;;4902293;29;20036;-79
2023/12/20 13:40:59;;;;;;;0.10;0.10;;;11.60;83.90;;;;;;4896364;29;20515;-79
2023/12/20 13:43:25;;;;;;;0.10;0.10;;;11.70;83.80;;;;;;4902127;29;20051;-79
2023/12/20 13:45:51;;;;;;;0.10;0.10;;;11.70;83.70;;;;;;4901848;29;20059;-79
2023/12/20 13:48:18;;;;;;;0.10;0.10;;;11.80;83.60;;;;;;4900905;29;20071;-79
2023/12/20 13:50:44;;;;;;;0.10;0.10;;;11.90;83.60;;;;;;4880115;29;20029;-82
2023/12/20 13:53:09;;;;;;;0.10;0.10;;;11.80;83.50;;;;;;4879136;29;20039;-83
2023/12/20 13:55:35;;;;;;;0.00;0.00;;;11.80;83.60;;;;;;4898955;29;20535;-83
2023/12/20 13:58:00;;;;;;;0.10;0.10;;;11.90;83.80;;;;;;4896242;29;20040;-83
2023/12/20 14:00:26;;;;;;;0.10;0.10;;;11.90;83.70;;;;;;4878768;29;20036;-79
2023/12/20 14:02:51;;;;;;;0.10;0.10;;;11.90;83.70;;;;;;4883756;29;20089;-80
2023/12/20 14:05:17;;;;;;;0.10;0.10;;;11.80;83.90;;;;;;4876315;29;20048;-79
2023/12/20 14:07:46;;;;;;;0.10;0.10;;;11.80;83.70;;;;;;4881431;29;20103;-80
2023/12/20 14:10:13;;;;;;;0.05;0.05;;;11.80;83.60;;;;;;4896780;29;20474;-78
2023/12/20 14:12:39;;;;;;;0.10;0.10;;;11.70;83.60;;;;;;4865093;29;20032;-78
2023/12/20 14:15:10;;;;;;;0.10;0.10;;;11.60;83.70;;;;;;4864767;29;20025;-78
2023/12/20 14:17:37;;;;;;;0.10;0.10;;;11.60;83.50;;;;;;4882891;29;20025;-78
2023/12/20 14:20:06;;;;;;;0.10;0.10;;;11.60;83.70;;;;;;4891994;29;20025;-78
2023/12/20 14:22:31;;;;;;;0.10;0.10;;;11.50;83.90;;;;;;4880727;29;20040;-79
2023/12/20 14:24:57;;;;;;;0.10;0.10;;;11.30;84.00;;;;;;4896451;29;20040;-78
2023/12/20 14:27:24;;;;;;;0.10;0.10;;;11.30;84.10;;;;;;4898510;29;20024;-79
2023/12/20 14:29:50;;;;;;;0.10;0.10;;;11.30;84.40;;;;;;4881399;29;20032;-80
2023/12/20 14:32:16;;;;;;;0.10;0.10;;;11.20;84.60;;;;;;4900594;29;20600;-79
2023/12/20 14:34:41;;;;;;;0.10;0.10;;;11.30;84.70;;;;;;4900359;29;20044;-77
2023/12/20 14:37:07;;;;;;;0.10;0.10;;;11.20;84.80;;;;;;4896830;29;20559;-82
2023/12/20 14:39:33;;;;;;;0.10;0.10;;;11.20;84.90;;;;;;4887112;29;20044;-82
2023/12/20 14:41:59;;;;;;;0.10;0.10;;;11.20;85.00;;;;;;4912057;29;20020;-82
2023/12/20 14:44:24;;;;;;;0.10;0.10;;;11.20;85.20;;;;;;4899823;29;20048;-82
2023/12/20 14:46:50;;;;;;;0.10;0.10;;;11.20;85.20;;;;;;4898021;29;20028;-82
2023/12/20 14:49:18;;;;;;;0.10;0.10;;;11.20;85.30;;;;;;4898905;29;20385;-82
2023/12/20 14:51:44;;;;;;;0.10;0.10;;;11.20;85.30;;;;;;4882869;29;20024;-82
2023/12/20 14:54:10;;;;;;;0.10;0.10;;;11.20;85.40;;;;;;4898982;29;20037;-82
2023/12/20 14:56:36;;;;;;;0.10;0.10;;;11.20;85.40;;;;;;4899548;29;20040;-82
2023/12/20 14:59:01;;;;;;;0.10;0.10;;;11.30;85.40;;;;;;4898763;29;20713;-82
2023/12/20 15:01:27;;;;;;;0.10;0.10;;;11.20;85.50;;;;;;4897938;29;20044;-81
2023/12/20 15:03:53;;;;;;;0.10;0.10;;;11.20;85.60;;;;;;4899415;29;20037;-81
2023/12/20 15:06:20;;;;;;;0.10;0.10;;;11.30;85.60;;;;;;4899225;29;20041;-82
2023/12/20 15:08:45;;;;;;;0.10;0.10;;;11.20;85.60;;;;;;4882101;29;20041;-81
2023/12/20 15:11:11;;;;;;;0.10;0.10;;;11.20;85.60;;;;;;4898832;29;20028;-82
2023/12/20 15:13:37;;;;;;;0.10;0.10;;;11.20;85.50;;;;;;4898020;29;20028;-82
2023/12/20 15:16:03;;;;;;;0.10;0.10;;;11.20;85.60;;;;;;4896647;29;20571;-82
2023/12/20 15:18:31;;;;;;;0.10;0.10;;;11.20;85.50;;;;;;4875078;29;20091;-82
2023/12/20 15:20:57;;;;;;;0.10;0.10;;;11.20;85.50;;;;;;4899006;29;20020;-82
2023/12/20 15:23:26;;;;;;;0.10;0.10;;;11.20;85.50;;;;;;4899003;29;20471;-81
2023/12/20 15:25:52;;;;;;;0.10;0.10;;;11.20;85.50;;;;;;4897714;29;20496;-82
2023/12/20 15:28:17;;;;;;;0.10;0.10;;;11.20;85.40;;;;;;4898202;29;20131;-83
2023/12/20 15:30:43;;;;;;;0.10;0.10;;;11.20;85.40;;;;;;4895897;29;20065;-80
2023/12/20 15:33:09;;;;;;;0.10;0.10;;;11.30;85.30;;;;;;4898511;29;20112;-89
2023/12/20 15:35:34;;;;;;;0.10;0.10;;;11.30;85.20;;;;;;4879269;29;20119;-83
2023/12/20 15:38:01;;;;;;;0.10;0.10;;;11.30;85.10;;;;;;4897045;29;20091;-79
2023/12/20 15:40:26;;;;;;;0.10;0.10;;;11.30;85.20;;;;;;4881948;29;20063;-84
2023/12/20 15:42:53;;;;;;;0.10;0.10;;;11.30;85.30;;;;;;4882711;29;20068;-84
2023/12/20 15:45:18;;;;;;;0.10;0.10;;;11.20;85.30;;;;;;4899063;29;20091;-85
2023/12/20 15:47:44;;;;;;;0.10;0.10;;;11.30;85.30;;;;;;4881913;29;20104;-83
2023/12/20 15:50:13;;;;;;;0.10;0.10;;;11.20;85.40;;;;;;4882165;29;20048;-82
2023/12/20 15:52:38;;;;;;;0.10;0.10;;;11.20;85.40;;;;;;4895568;29;20515;-83
2023/12/20 15:55:04;;;;;;;0.10;0.10;;;11.20;85.60;;;;;;4880261;29;20118;-83
2023/12/20 15:57:30;;;;;;;0.10;0.10;;;11.20;85.70;;;;;;4897367;29;20035;-83
2023/12/20 15:59:55;;;;;;;0.10;0.10;;;11.20;85.80;;;;;;4896997;29;20052;-83
2023/12/20 16:02:22;;;;;;;0.10;0.10;;;11.20;85.80;;;;;;4897047;29;20417;-83
2023/12/20 16:04:48;;;;;;;0.10;0.10;;;11.20;86.00;;;;;;4897525;29;20088;-82
2023/12/20 16:07:13;;;;;;;0.10;0.10;;;11.20;86.10;;;;;;4877639;29;20037;-82
2023/12/20 16:09:39;;;;;;;0.10;0.10;;;11.20;86.10;;;;;;4896533;29;20080;-83
2023/12/20 16:12:05;;;;;;;0.10;0.10;;;11.20;86.20;;;;;;4880716;29;20035;-83
2023/12/20 16:14:30;;;;;;;0.10;0.10;;;11.20;86.20;;;;;;4881111;29;20052;-83
2023/12/20 16:16:56;;;;;;;0.10;0.10;;;11.20;86.30;;;;;;4896831;29;20092;-83
2023/12/20 16:19:22;;;;;;;0.10;0.10;;;11.20;86.40;;;;;;4897540;29;20036;-83
2023/12/20 16:21:47;;;;;;;0.10;0.10;;;11.20;86.50;;;;;;4897234;29;20582;-83
2023/12/20 16:24:13;;;;;;;0.10;0.10;;;11.20;86.50;;;;;;4897263;29;20039;-83
2023/12/20 16:26:39;;;;;;;0.10;0.10;;;11.20;86.70;;;;;;4900962;29;20068;-84
2023/12/20 16:29:04;;;;;;;0.10;0.10;;;11.20;86.80;;;;;;4882510;29;20041;-83
2023/12/20 16:31:30;;;;;;;0.10;0.10;;;11.10;87.00;;;;;;4897419;29;20056;-83
2023/12/20 16:33:55;;;;;;;0.10;0.10;;;11.10;87.30;;;;;;4900436;29;20046;-83
2023/12/20 16:36:21;;;;;;;0.10;0.10;;;11.10;87.30;;;;;;4899763;29;20037;-82
2023/12/20 16:38:47;;;;;;;0.10;0.10;;;11.10;87.50;;;;;;4899977;29;20028;-83
2023/12/20 16:41:12;;;;;;;0.10;0.10;;;11.10;87.60;;;;;;4901090;29;20032;-83
2023/12/20 16:43:38;;;;;;;0.10;0.10;;;11.10;87.60;;;;;;4883804;29;20799;-83
2023/12/20 16:46:04;;;;;;;0.10;0.10;;;11.10;87.70;;;;;;4900304;29;20386;-84
2023/12/20 16:48:29;;;;;;;0.10;0.10;;;11.10;87.70;;;;;;4884660;29;20021;-77
2023/12/20 16:50:55;;;;;;;0.10;0.10;;;11.10;87.70;;;;;;4884479;29;20101;-85
2023/12/20 16:53:21;;;;;;;0.10;0.10;;;11.20;87.70;;;;;;4900976;29;20029;-84
2023/12/20 16:55:46;;;;;;;0.10;0.10;;;11.10;87.70;;;;;;4896689;29;20032;-83
2023/12/20 16:58:13;;;;;;;0.10;0.10;;;11.10;87.70;;;;;;4887420;29;20036;-77
2023/12/20 17:00:40;;;;;;;0.10;0.10;;;11.10;87.70;;;;;;4890903;29;20112;-82
2023/12/20 17:03:06;;;;;;;0.10;0.10;;;11.10;87.90;;;;;;4898451;29;20037;-83
2023/12/20 17:05:32;;;;;;;0.10;0.10;;;11.10;87.80;;;;;;4900077;29;20475;-79
2023/12/20 17:07:57;;;;;;;0.10;0.10;;;11.00;87.90;;;;;;4899883;29;20044;-85
2023/12/20 17:10:23;;;;;;;0.10;0.10;;;11.00;88.10;;;;;;4899895;29;20090;-78
2023/12/20 17:12:49;;;;;;;0.10;0.10;;;11.00;88.00;;;;;;4882723;29;20020;-82
2023/12/20 17:15:14;;;;;;;0.10;0.10;;;11.00;88.00;;;;;;4899983;29;20073;-84
2023/12/20 17:17:40;;;;;;;0.10;0.10;;;11.10;88.00;;;;;;4883229;29;20487;-84
2023/12/20 17:20:07;;;;;;;0.10;0.10;;;11.10;88.00;;;;;;4900582;29;20060;-87
2023/12/20 17:22:32;;;;;;;0.10;0.10;;;11.10;87.90;;;;;;4896209;29;20023;-84
2023/12/20 17:24:58;;;;;;;0.10;0.10;;;11.10;87.90;;;;;;4900227;29;20096;-85
2023/12/20 17:27:24;;;;;;;0.10;0.10;;;11.10;87.90;;;;;;4897588;29;20135;-82
2023/12/20 17:29:49;;;;;;;0.10;0.10;;;11.10;88.00;;;;;;4900297;29;20036;-84
2023/12/20 17:32:36;;;;;;;0.10;0.10;;;11.10;88.10;;;;;;4898404;29;20060;-84
2023/12/20 17:35:08;;;;;;;0.10;0.10;;;11.00;88.10;;;;;;4880345;29;20041;-84
2023/12/20 17:37:34;;;;;;;0.10;0.10;;;11.00;88.10;;;;;;4898643;29;20056;-84
2023/12/20 17:39:59;;;;;;;0.10;0.10;;;11.00;88.10;;;;;;4901070;29;20472;-84
2023/12/20 17:42:25;;;;;;;0.10;0.10;;;11.00;88.10;;;;;;4899648;29;20036;-85
2023/12/20 17:44:51;;;;;;;0.10;0.10;;;11.00;88.10;;;;;;4897523;29;20035;-84
2023/12/20 17:47:17;;;;;;;0.10;0.10;;;11.10;88.20;;;;;;4881831;29;20021;-85
2023/12/20 17:49:42;;;;;;;0.10;0.10;;;11.00;88.20;;;;;;4899686;29;20115;-85
2023/12/20 17:52:08;;;;;;;0.10;0.10;;;11.00;88.30;;;;;;4897644;29;20031;-85
2023/12/20 17:54:34;;;;;;;0.10;0.10;;;11.00;88.20;;;;;;4883043;29;20057;-85
2023/12/20 17:57:00;;;;;;;0.10;0.10;;;11.00;88.30;;;;;;4882337;29;20050;-82
2023/12/20 17:59:26;;;;;;;0.05;0.05;;;11.00;88.40;;;;;;4892691;29;20041;-84
2023/12/20 18:01:51;;;;;;;0.10;0.10;;;11.00;88.40;;;;;;4897798;29;20063;-85
2023/12/20 18:04:20;;;;;;;0.10;0.10;;;11.00;88.50;;;;;;4884074;29;20044;-83
2023/12/20 18:06:46;;;;;;;0.10;0.10;;;11.00;88.40;;;;;;4892131;29;20063;-82
2023/12/20 18:09:11;;;;;;;0.10;0.10;;;11.00;88.40;;;;;;4883620;29;20056;-82
2023/12/20 18:11:37;;;;;;;0.00;0.00;;;11.00;88.40;;;;;;4895836;29;20021;-85
2023/12/20 18:14:02;;;;;;;0.10;0.10;;;11.00;88.50;;;;;;4899920;29;20028;-86
2023/12/20 18:16:28;;;;;;;0.10;0.10;;;11.00;88.50;;;;;;4895904;29;20021;-85